Time;durP1;ratioP1;P1;durP2;ratioP2;P2;SDS_P1;SDS_P2;PMS_P1;PMS_P2;Temp;Humidity;BMP_temperature;BMP_pressure;BME280_temperature;BME280_humidity;BME280_pressure;Samples;Min_cycle;Max_cycle;Signal;HPM_P1;HPM_P2
2022/10/22 00:02:15;;;;;;;10.23;4.80;;;11.30;99.90;;;;;;5109187;28;20492;-81
2022/10/22 00:04:41;;;;;;;10.80;5.28;;;11.30;99.90;;;;;;5111078;28;20044;-82
2022/10/22 00:07:08;;;;;;;9.48;4.80;;;11.20;99.90;;;;;;5079868;28;20050;-81
2022/10/22 00:09:35;;;;;;;8.68;4.38;;;11.20;99.90;;;;;;5079859;28;20438;-81
2022/10/22 00:12:02;;;;;;;9.55;4.32;;;11.20;99.90;;;;;;5096620;28;20059;-81
2022/10/22 00:14:28;;;;;;;9.40;4.75;;;11.20;99.90;;;;;;5129478;28;20127;-81
2022/10/22 00:16:55;;;;;;;11.05;4.90;;;11.20;99.90;;;;;;5112660;28;20579;-82
2022/10/22 00:19:25;;;;;;;8.75;4.43;;;11.10;99.90;;;;;;5080972;28;20047;-81
2022/10/22 00:21:52;;;;;;;12.68;4.78;;;11.10;99.90;;;;;;5095990;28;20040;-82
2022/10/22 00:24:19;;;;;;;12.30;4.57;;;11.00;99.90;;;;;;5096158;28;20122;-82
2022/10/22 00:26:46;;;;;;;11.90;4.82;;;11.00;99.90;;;;;;5095765;28;20109;-82
2022/10/22 00:29:13;;;;;;;12.27;3.92;;;11.00;99.90;;;;;;5112067;28;20408;-82
2022/10/22 00:31:40;;;;;;;7.60;3.95;;;11.00;99.90;;;;;;5111890;28;20036;-81
2022/10/22 00:34:06;;;;;;;9.60;4.25;;;11.00;99.90;;;;;;5091810;28;20093;-82
2022/10/22 00:36:33;;;;;;;11.18;4.57;;;11.00;99.90;;;;;;5058892;28;20041;-82
2022/10/22 00:39:00;;;;;;;8.27;4.05;;;10.90;99.90;;;;;;5092083;28;20043;-82
2022/10/22 00:41:26;;;;;;;11.77;4.68;;;10.90;99.90;;;;;;5075462;28;20036;-81
2022/10/22 00:43:56;;;;;;;10.32;4.75;;;10.90;99.90;;;;;;5066577;28;20061;-81
2022/10/22 00:46:23;;;;;;;10.25;4.55;;;10.90;99.90;;;;;;5112082;28;20089;-81
2022/10/22 00:48:50;;;;;;;9.50;4.43;;;10.90;99.90;;;;;;5112036;28;20048;-81
2022/10/22 00:51:20;;;;;;;10.75;4.70;;;10.80;99.90;;;;;;5095664;28;20085;-81
2022/10/22 00:53:52;;;;;;;16.90;4.70;;;10.80;99.90;;;;;;5128943;28;20457;-81
2022/10/22 00:56:19;;;;;;;9.63;4.35;;;10.80;99.90;;;;;;5112625;28;20040;-82
2022/10/22 00:58:50;;;;;;;10.38;4.68;;;10.70;99.90;;;;;;5111877;28;20032;-81
2022/10/22 01:01:21;;;;;;;10.50;5.05;;;10.80;99.90;;;;;;5112166;28;20036;-81
2022/10/22 01:03:48;;;;;;;10.10;4.68;;;10.80;99.90;;;;;;5111795;28;20105;-81
2022/10/22 01:06:26;;;;;;;10.27;5.00;;;10.80;99.90;;;;;;5095104;28;20144;-81
2022/10/22 01:09:16;;;;;;;9.60;4.60;;;10.80;99.90;;;;;;5111491;28;20631;-81
2022/10/22 01:11:58;;;;;;;13.27;4.40;;;10.80;99.90;;;;;;5111504;28;20048;-81
2022/10/22 01:14:31;;;;;;;13.18;4.63;;;10.80;99.90;;;;;;5111255;28;20040;-81
2022/10/22 01:17:45;;;;;;;10.65;4.30;;;10.80;99.90;;;;;;5128225;28;20090;-81
2022/10/22 01:20:37;;;;;;;9.13;4.57;;;10.80;99.90;;;;;;5095519;28;20040;-82
2022/10/22 01:23:16;;;;;;;9.45;4.07;;;10.80;99.90;;;;;;5111748;28;20044;-82
2022/10/22 01:26:20;;;;;;;9.90;4.45;;;10.80;99.90;;;;;;5111747;28;20032;-81
2022/10/22 01:28:59;;;;;;;8.65;3.63;;;10.80;99.90;;;;;;5128428;28;20028;-81
2022/10/22 01:31:32;;;;;;;12.73;4.25;;;10.80;99.90;;;;;;5128309;28;20032;-81
2022/10/22 01:34:01;;;;;;;8.93;4.38;;;10.80;99.90;;;;;;5110846;28;20044;-81
2022/10/22 01:36:31;;;;;;;14.23;4.20;;;10.80;99.90;;;;;;5128043;28;20036;-82
2022/10/22 01:39:00;;;;;;;7.22;3.95;;;10.80;99.90;;;;;;5111110;28;20040;-81
2022/10/22 01:41:28;;;;;;;10.30;3.90;;;10.80;99.90;;;;;;5111338;28;20036;-82
2022/10/22 01:43:55;;;;;;;9.15;4.20;;;10.80;99.90;;;;;;5128040;28;20530;-82
2022/10/22 01:46:26;;;;;;;8.45;4.00;;;10.90;99.90;;;;;;5094943;28;20035;-81
2022/10/22 01:49:11;;;;;;;8.70;4.20;;;10.90;99.90;;;;;;5111193;28;20044;-82
2022/10/22 01:51:56;;;;;;;10.38;4.45;;;10.90;99.90;;;;;;5111186;28;20048;-82
2022/10/22 01:54:38;;;;;;;9.05;4.10;;;10.90;99.90;;;;;;5110948;28;20058;-82
2022/10/22 01:57:16;;;;;;;15.52;4.65;;;10.90;99.90;;;;;;5110664;28;20043;-82
2022/10/22 01:59:55;;;;;;;8.90;3.75;;;11.00;99.90;;;;;;5110682;28;20036;-81
2022/10/22 02:02:22;;;;;;;8.15;3.75;;;10.90;99.90;;;;;;5110935;28;20040;-82
2022/10/22 02:04:51;;;;;;;14.43;4.40;;;10.90;99.90;;;;;;5110965;28;20039;-81
2022/10/22 02:07:23;;;;;;;7.60;3.78;;;10.90;99.90;;;;;;5110454;28;20046;-82
2022/10/22 02:09:52;;;;;;;7.88;3.65;;;10.90;99.90;;;;;;5110574;28;20048;-82
2022/10/22 02:12:21;;;;;;;9.23;4.00;;;10.90;99.90;;;;;;5110781;28;20411;-81
2022/10/22 02:14:49;;;;;;;10.57;4.25;;;10.80;99.90;;;;;;5110103;28;20408;-82
2022/10/22 02:17:20;;;;;;;8.45;4.18;;;10.80;99.90;;;;;;5094059;28;20044;-82
2022/10/22 02:19:54;;;;;;;6.35;3.30;;;10.80;99.90;;;;;;5110120;28;20043;-82
2022/10/22 02:22:22;;;;;;;7.67;3.73;;;10.80;99.90;;;;;;5110513;28;20089;-81
2022/10/22 02:24:49;;;;;;;9.07;4.78;;;10.70;99.90;;;;;;5126612;28;20071;-82
2022/10/22 02:27:26;;;;;;;6.95;3.95;;;10.70;99.90;;;;;;5092803;28;20078;-81
2022/10/22 02:30:05;;;;;;;9.45;4.00;;;10.70;99.90;;;;;;5110314;28;20112;-81
2022/10/22 02:32:40;;;;;;;12.45;4.10;;;10.70;99.90;;;;;;5110416;28;20040;-82
2022/10/22 02:35:12;;;;;;;8.75;4.60;;;10.80;99.90;;;;;;5093462;28;20048;-82
2022/10/22 02:37:40;;;;;;;7.03;3.90;;;11.00;99.90;;;;;;5110105;28;20385;-81
2022/10/22 02:40:07;;;;;;;13.10;4.20;;;10.80;99.90;;;;;;5093282;28;20089;-81
2022/10/22 02:42:35;;;;;;;9.43;3.97;;;10.80;99.90;;;;;;5127078;28;20377;-82
2022/10/22 02:45:02;;;;;;;10.27;4.03;;;10.80;99.90;;;;;;5072890;28;20045;-82
2022/10/22 02:47:29;;;;;;;9.10;4.13;;;10.80;99.90;;;;;;5073297;28;20127;-81
2022/10/22 02:49:55;;;;;;;9.30;4.13;;;10.80;99.90;;;;;;5072976;28;20131;-81
2022/10/22 02:52:22;;;;;;;6.30;3.58;;;10.90;99.90;;;;;;5073238;28;20094;-81
2022/10/22 02:54:49;;;;;;;8.75;3.85;;;10.80;99.90;;;;;;5072844;28;20570;-81
2022/10/22 02:57:15;;;;;;;11.20;4.10;;;10.80;99.90;;;;;;5089819;28;20045;-82
2022/10/22 02:59:42;;;;;;;8.10;4.03;;;10.80;99.90;;;;;;5089556;28;20032;-81
2022/10/22 03:02:09;;;;;;;7.90;3.80;;;10.70;99.90;;;;;;5089429;28;20404;-82
2022/10/22 03:04:36;;;;;;;8.20;3.83;;;10.70;99.90;;;;;;5073008;28;20043;-82
2022/10/22 03:07:02;;;;;;;7.70;3.70;;;10.70;99.90;;;;;;5072857;28;20105;-81
2022/10/22 03:09:29;;;;;;;7.80;3.80;;;10.70;99.90;;;;;;5074027;28;20037;-82
2022/10/22 03:11:56;;;;;;;6.30;3.65;;;10.70;99.90;;;;;;5092823;28;20514;-82
2022/10/22 03:14:22;;;;;;;8.27;3.72;;;10.70;99.90;;;;;;5093273;28;20206;-80
2022/10/22 03:16:49;;;;;;;7.40;3.22;;;10.70;99.90;;;;;;5109540;28;20051;-81
2022/10/22 03:19:16;;;;;;;9.95;3.92;;;10.70;99.90;;;;;;5076404;28;20040;-82
2022/10/22 03:21:53;;;;;;;6.65;3.67;;;10.60;99.90;;;;;;5109398;28;20176;-81
2022/10/22 03:24:32;;;;;;;11.93;3.72;;;10.60;99.90;;;;;;5109132;28;20519;-82
2022/10/22 03:26:59;;;;;;;10.40;3.80;;;10.70;99.90;;;;;;5109369;28;20040;-81
2022/10/22 03:29:26;;;;;;;10.55;4.00;;;10.60;99.90;;;;;;5093180;28;20510;-81
2022/10/22 03:31:53;;;;;;;7.97;4.10;;;10.70;99.90;;;;;;5076098;28;20046;-81
2022/10/22 03:34:20;;;;;;;8.45;3.92;;;10.80;99.90;;;;;;5125982;28;20047;-82
2022/10/22 03:36:48;;;;;;;7.15;3.65;;;10.80;99.90;;;;;;5109670;28;20028;-81
2022/10/22 03:39:18;;;;;;;8.05;4.00;;;10.80;99.90;;;;;;5092059;28;20126;-81
2022/10/22 03:41:45;;;;;;;11.60;4.10;;;10.80;99.90;;;;;;5109354;28;20040;-82
2022/10/22 03:44:13;;;;;;;11.15;3.97;;;10.70;99.90;;;;;;5109060;28;20115;-81
2022/10/22 03:46:40;;;;;;;10.35;4.47;;;10.80;99.90;;;;;;5092678;28;20050;-81
2022/10/22 03:49:07;;;;;;;10.32;4.03;;;10.70;99.90;;;;;;5108944;28;20035;-82
2022/10/22 03:51:34;;;;;;;13.98;3.90;;;10.70;99.90;;;;;;5092533;28;20108;-81
2022/10/22 03:54:02;;;;;;;7.53;4.35;;;10.60;99.90;;;;;;5092424;28;20079;-82
2022/10/22 03:56:29;;;;;;;10.57;4.05;;;10.60;99.90;;;;;;5109230;28;20145;-81
2022/10/22 03:58:57;;;;;;;14.20;4.40;;;10.60;99.90;;;;;;5125542;28;20067;-82
2022/10/22 04:01:25;;;;;;;10.70;4.38;;;10.70;99.90;;;;;;5108984;28;20044;-81
2022/10/22 04:03:52;;;;;;;10.00;4.95;;;10.70;99.90;;;;;;5092542;28;20044;-82
2022/10/22 04:06:19;;;;;;;9.00;4.68;;;10.80;99.90;;;;;;5091959;28;20040;-81
2022/10/22 04:08:46;;;;;;;9.43;5.18;;;10.80;99.90;;;;;;5092143;28;20131;-82
2022/10/22 04:11:13;;;;;;;12.65;5.03;;;10.80;99.90;;;;;;5070727;28;20032;-82
2022/10/22 04:13:41;;;;;;;11.27;4.60;;;10.80;99.90;;;;;;5055589;28;20044;-82
2022/10/22 04:16:22;;;;;;;9.65;4.85;;;10.90;99.90;;;;;;5087942;28;20505;-82
2022/10/22 04:18:49;;;;;;;11.52;4.30;;;10.90;99.90;;;;;;5088297;28;20041;-81
2022/10/22 04:21:18;;;;;;;8.80;4.78;;;10.80;99.90;;;;;;5055015;28;20485;-81
2022/10/22 04:23:46;;;;;;;12.50;5.00;;;10.90;99.90;;;;;;5095334;28;20044;-82
2022/10/22 04:26:14;;;;;;;10.68;4.95;;;10.80;99.90;;;;;;5108492;28;20101;-81
2022/10/22 04:28:41;;;;;;;8.73;4.40;;;10.80;99.90;;;;;;5109073;28;20048;-82
2022/10/22 04:31:09;;;;;;;8.15;4.35;;;10.80;99.90;;;;;;5091758;28;20040;-82
2022/10/22 04:33:36;;;;;;;9.70;4.20;;;10.80;99.90;;;;;;5092499;28;20075;-82
2022/10/22 04:36:17;;;;;;;11.25;4.53;;;10.80;99.90;;;;;;5075192;28;20071;-82
2022/10/22 04:38:46;;;;;;;12.68;4.60;;;10.80;99.90;;;;;;5108789;28;20404;-82
2022/10/22 04:41:18;;;;;;;11.57;4.43;;;10.90;99.90;;;;;;5108385;28;20028;-82
2022/10/22 04:43:46;;;;;;;11.07;4.55;;;10.80;99.90;;;;;;5108291;28;20415;-82
2022/10/22 04:46:15;;;;;;;7.68;4.28;;;10.90;99.90;;;;;;5108254;28;20527;-82
2022/10/22 04:48:43;;;;;;;11.82;4.95;;;10.90;99.90;;;;;;5108633;28;20040;-82
2022/10/22 04:51:15;;;;;;;7.80;3.90;;;10.90;99.90;;;;;;5094810;28;20055;-81
2022/10/22 04:53:43;;;;;;;12.35;4.68;;;11.20;99.90;;;;;;5112281;28;20207;-82
2022/10/22 04:56:19;;;;;;;8.95;4.70;;;10.90;99.90;;;;;;5095887;28;20036;-81
2022/10/22 04:58:51;;;;;;;6.93;3.88;;;10.90;99.90;;;;;;5112477;28;20452;-81
2022/10/22 05:01:21;;;;;;;15.73;4.85;;;10.90;99.90;;;;;;5111898;28;20480;-81
2022/10/22 05:03:49;;;;;;;17.40;4.75;;;10.80;99.90;;;;;;5128979;28;20132;-81
2022/10/22 05:06:20;;;;;;;9.00;4.80;;;10.90;99.90;;;;;;5112623;28;20218;-81
2022/10/22 05:08:47;;;;;;;9.70;4.47;;;10.80;99.90;;;;;;5095166;28;20040;-82
2022/10/22 05:11:17;;;;;;;7.70;4.65;;;10.80;99.90;;;;;;5112009;28;20054;-82
2022/10/22 05:13:44;;;;;;;9.55;5.05;;;10.90;99.90;;;;;;5111829;28;20065;-81
2022/10/22 05:16:12;;;;;;;12.82;4.63;;;10.90;99.90;;;;;;5111382;28;20098;-82
2022/10/22 05:18:41;;;;;;;11.93;4.53;;;10.90;99.90;;;;;;5112090;28;20549;-82
2022/10/22 05:21:11;;;;;;;13.73;5.18;;;10.90;99.90;;;;;;5111413;28;20484;-82
2022/10/22 05:23:37;;;;;;;10.65;5.05;;;10.90;99.90;;;;;;5111665;28;20131;-82
2022/10/22 05:26:06;;;;;;;9.63;4.70;;;10.90;99.90;;;;;;5111948;28;20488;-82
2022/10/22 05:28:33;;;;;;;14.00;4.78;;;10.90;99.90;;;;;;5111170;28;20079;-82
2022/10/22 05:31:01;;;;;;;19.15;5.43;;;10.90;99.90;;;;;;5111707;28;20090;-82
2022/10/22 05:33:29;;;;;;;10.65;4.57;;;10.90;99.90;;;;;;5111229;28;20036;-82
2022/10/22 05:35:57;;;;;;;10.45;5.10;;;10.90;99.90;;;;;;5094931;28;20032;-82
2022/10/22 05:38:24;;;;;;;11.38;5.35;;;10.90;99.90;;;;;;5111471;28;20069;-81
2022/10/22 05:41:09;;;;;;;13.88;5.38;;;11.00;99.90;;;;;;5111208;28;20040;-81
2022/10/22 05:43:37;;;;;;;13.20;4.75;;;10.90;99.90;;;;;;5111277;28;20040;-82
2022/10/22 05:46:15;;;;;;;10.70;4.60;;;10.90;99.90;;;;;;5078322;28;20044;-82
2022/10/22 05:48:42;;;;;;;11.75;5.57;;;11.00;99.90;;;;;;5128011;28;20051;-81
2022/10/22 05:51:12;;;;;;;13.23;5.88;;;11.00;99.90;;;;;;5077812;28;20100;-82
2022/10/22 05:53:40;;;;;;;12.85;5.70;;;11.00;99.90;;;;;;5110708;28;20044;-81
2022/10/22 05:56:11;;;;;;;10.95;5.85;;;11.00;99.90;;;;;;5127929;28;20092;-82
2022/10/22 05:58:38;;;;;;;8.05;4.75;;;11.00;99.90;;;;;;5110633;28;20028;-81
2022/10/22 06:01:14;;;;;;;16.98;5.13;;;11.00;99.90;;;;;;5093060;28;20123;-82
2022/10/22 06:03:41;;;;;;;13.32;5.65;;;11.00;99.90;;;;;;5127279;28;20401;-81
2022/10/22 06:06:13;;;;;;;9.45;5.32;;;11.00;99.90;;;;;;5127012;28;20049;-82
2022/10/22 06:08:40;;;;;;;10.60;5.43;;;10.90;99.90;;;;;;5109942;28;20377;-81
2022/10/22 06:11:07;;;;;;;10.68;5.07;;;10.90;99.90;;;;;;5093500;28;20036;-82
2022/10/22 06:13:34;;;;;;;11.40;4.70;;;10.90;99.90;;;;;;5093593;28;20036;-82
2022/10/22 06:16:00;;;;;;;12.27;5.40;;;10.90;99.90;;;;;;5110024;28;20139;-81
2022/10/22 06:18:27;;;;;;;17.08;5.72;;;10.90;99.90;;;;;;5062320;28;20041;-82
2022/10/22 06:21:02;;;;;;;9.10;5.07;;;10.90;99.90;;;;;;5076802;28;20166;-82
2022/10/22 06:23:28;;;;;;;12.27;5.70;;;10.90;99.90;;;;;;5094899;28;20569;-82
2022/10/22 06:25:56;;;;;;;11.85;5.68;;;10.90;99.90;;;;;;5076820;28;20369;-82
2022/10/22 06:28:23;;;;;;;14.77;5.10;;;10.90;99.90;;;;;;5109795;28;20475;-82
2022/10/22 06:30:50;;;;;;;12.65;5.20;;;10.80;99.90;;;;;;5110289;28;20079;-82
2022/10/22 06:33:17;;;;;;;10.35;5.53;;;10.90;99.90;;;;;;5094095;28;20036;-82
2022/10/22 06:35:44;;;;;;;16.35;5.38;;;10.90;99.90;;;;;;5077003;28;20040;-82
2022/10/22 06:38:10;;;;;;;12.93;5.78;;;10.90;99.90;;;;;;5093679;28;20047;-82
2022/10/22 06:40:37;;;;;;;12.48;5.75;;;11.00;99.90;;;;;;5093664;28;20511;-82
2022/10/22 06:43:04;;;;;;;14.13;5.70;;;11.00;99.90;;;;;;5073227;28;20032;-82
2022/10/22 06:45:31;;;;;;;10.57;5.43;;;11.00;99.90;;;;;;5056741;28;20084;-81
2022/10/22 06:47:58;;;;;;;9.80;5.60;;;11.00;99.90;;;;;;5073369;28;20654;-82
2022/10/22 06:50:25;;;;;;;9.98;5.13;;;11.10;99.90;;;;;;5089394;28;20032;-81
2022/10/22 06:52:52;;;;;;;19.52;5.60;;;11.20;99.90;;;;;;5073387;28;20430;-82
2022/10/22 06:55:18;;;;;;;13.07;5.13;;;11.20;99.90;;;;;;5084555;28;20060;-82
2022/10/22 06:57:45;;;;;;;12.27;5.50;;;11.30;99.90;;;;;;5076937;28;20035;-82
2022/10/22 07:00:12;;;;;;;12.30;5.55;;;11.20;99.90;;;;;;5093476;28;20040;-82
2022/10/22 07:02:39;;;;;;;11.35;4.90;;;11.30;99.90;;;;;;5076557;28;20499;-82
2022/10/22 07:05:06;;;;;;;17.45;5.80;;;11.40;99.90;;;;;;5092985;28;20040;-82
2022/10/22 07:07:33;;;;;;;11.57;5.40;;;11.40;99.90;;;;;;5092640;28;20067;-82
2022/10/22 07:10:00;;;;;;;11.52;5.90;;;11.50;99.90;;;;;;5067242;28;20468;-82
2022/10/22 07:12:26;;;;;;;13.60;5.30;;;11.50;99.90;;;;;;5075674;28;20438;-82
2022/10/22 07:14:53;;;;;;;11.32;5.30;;;11.50;99.90;;;;;;5082824;28;20055;-83
2022/10/22 07:17:20;;;;;;;11.60;5.40;;;11.60;99.90;;;;;;5075648;28;20113;-82
2022/10/22 07:19:46;;;;;;;11.45;6.18;;;11.60;99.90;;;;;;5089909;28;20036;-82
2022/10/22 07:22:13;;;;;;;16.42;6.10;;;11.70;99.90;;;;;;5077744;28;20044;-82
2022/10/22 07:24:40;;;;;;;12.32;5.70;;;11.70;99.90;;;;;;5075724;28;20506;-82
2022/10/22 07:27:06;;;;;;;12.07;5.80;;;11.70;99.90;;;;;;5092671;28;20412;-82
2022/10/22 07:29:33;;;;;;;14.90;5.05;;;11.70;99.90;;;;;;5075699;28;20572;-82
2022/10/22 07:32:00;;;;;;;9.63;4.82;;;11.80;99.90;;;;;;5079255;28;20403;-82
2022/10/22 07:34:27;;;;;;;9.65;5.15;;;11.80;99.90;;;;;;5104220;28;20043;-82
2022/10/22 07:36:55;;;;;;;16.05;5.00;;;11.80;99.90;;;;;;5068536;28;20052;-82
2022/10/22 07:39:24;;;;;;;20.85;5.80;;;11.90;99.90;;;;;;5099768;28;20696;-82
2022/10/22 07:41:51;;;;;;;10.85;5.47;;;12.00;99.90;;;;;;5105760;28;20107;-82
2022/10/22 07:44:18;;;;;;;9.55;5.30;;;12.00;99.90;;;;;;5094547;28;20044;-82
2022/10/22 07:46:48;;;;;;;18.20;6.28;;;12.10;99.90;;;;;;5063835;28;20040;-82
2022/10/22 07:49:14;;;;;;;14.13;5.97;;;12.20;99.90;;;;;;5083257;28;20032;-83
2022/10/22 07:51:41;;;;;;;17.45;5.53;;;12.20;99.90;;;;;;5073259;28;20516;-82
2022/10/22 07:54:08;;;;;;;17.05;5.97;;;12.30;99.90;;;;;;5055737;28;20037;-82
2022/10/22 07:56:34;;;;;;;11.40;5.30;;;12.30;99.90;;;;;;5075121;28;20032;-82
2022/10/22 07:59:01;;;;;;;13.82;5.45;;;12.40;99.90;;;;;;5061913;28;20041;-82
2022/10/22 08:01:28;;;;;;;17.95;5.32;;;12.40;99.90;;;;;;5072067;28;20781;-83
2022/10/22 08:03:54;;;;;;;16.35;5.57;;;12.50;99.90;;;;;;5072093;28;20485;-82
2022/10/22 08:06:21;;;;;;;16.13;5.15;;;12.60;99.90;;;;;;5072120;28;20169;-83
2022/10/22 08:08:48;;;;;;;13.70;5.43;;;12.60;99.90;;;;;;5071739;28;20489;-82
2022/10/22 08:11:15;;;;;;;10.63;4.78;;;12.70;99.90;;;;;;5079922;28;20463;-83
2022/10/22 08:13:41;;;;;;;10.02;4.50;;;12.70;99.90;;;;;;5072017;28;20044;-82
2022/10/22 08:16:08;;;;;;;13.15;5.60;;;12.70;99.90;;;;;;5072021;28;20110;-83
2022/10/22 08:18:35;;;;;;;14.88;5.15;;;13.40;99.90;;;;;;5055509;28;20036;-82
2022/10/22 08:21:03;;;;;;;12.20;4.72;;;12.90;99.90;;;;;;5083535;28;20039;-83
2022/10/22 08:23:29;;;;;;;11.43;4.80;;;12.90;99.90;;;;;;5075871;28;20044;-82
2022/10/22 08:25:56;;;;;;;9.90;4.45;;;13.00;99.90;;;;;;5077999;28;20036;-82
2022/10/22 08:28:24;;;;;;;11.77;5.30;;;13.00;99.90;;;;;;5096087;28;20051;-82
2022/10/22 08:30:50;;;;;;;12.63;4.97;;;13.10;99.90;;;;;;5112026;28;20123;-81
2022/10/22 08:33:17;;;;;;;11.48;4.28;;;13.10;99.90;;;;;;5112513;28;20128;-82
2022/10/22 08:35:49;;;;;;;11.77;4.88;;;13.20;99.90;;;;;;5111357;28;20399;-83
2022/10/22 08:38:16;;;;;;;15.00;4.60;;;13.30;99.90;;;;;;5080896;28;20032;-82
2022/10/22 08:40:48;;;;;;;12.30;4.40;;;13.30;99.90;;;;;;5098151;28;20044;-82
2022/10/22 08:43:42;;;;;;;10.65;4.60;;;13.30;99.90;;;;;;5112207;28;20055;-82
2022/10/22 08:46:27;;;;;;;16.05;4.50;;;13.40;99.90;;;;;;5112254;28;20143;-83
2022/10/22 08:49:00;;;;;;;10.13;4.03;;;13.40;99.90;;;;;;5111802;28;20090;-82
2022/10/22 08:51:32;;;;;;;9.68;4.15;;;13.40;99.90;;;;;;5112090;28;20408;-81
2022/10/22 08:54:27;;;;;;;8.88;4.15;;;13.40;99.90;;;;;;5118588;28;20048;-81
2022/10/22 08:57:15;;;;;;;8.38;3.65;;;13.40;99.90;;;;;;5128378;28;20514;-82
2022/10/22 08:59:46;;;;;;;10.75;3.88;;;13.50;99.90;;;;;;5111693;28;20044;-81
2022/10/22 09:02:34;;;;;;;9.75;4.30;;;13.60;99.90;;;;;;5128885;28;20032;-82
2022/10/22 09:05:26;;;;;;;9.93;4.20;;;13.70;99.90;;;;;;5111747;28;20052;-81
2022/10/22 09:07:54;;;;;;;8.68;4.07;;;13.70;99.90;;;;;;5111129;28;20043;-81
2022/10/22 09:10:25;;;;;;;9.63;3.40;;;13.80;99.90;;;;;;5111600;28;20040;-81
2022/10/22 09:12:52;;;;;;;11.18;3.78;;;13.90;99.90;;;;;;5111131;28;20408;-81
2022/10/22 09:15:20;;;;;;;10.75;3.67;;;14.00;99.90;;;;;;5128004;28;20043;-81
2022/10/22 09:18:02;;;;;;;9.88;3.40;;;14.00;99.90;;;;;;5094700;28;20155;-82
2022/10/22 09:20:44;;;;;;;9.38;3.30;;;14.20;99.90;;;;;;5128109;28;20101;-81
2022/10/22 09:23:24;;;;;;;7.15;2.92;;;14.20;99.90;;;;;;5108110;28;20037;-82
2022/10/22 09:25:51;;;;;;;9.63;3.42;;;14.30;99.90;;;;;;5091166;28;20051;-81
2022/10/22 09:28:18;;;;;;;12.30;3.20;;;14.40;99.90;;;;;;5091207;28;20037;-81
2022/10/22 09:30:45;;;;;;;11.48;3.58;;;14.50;99.90;;;;;;5058001;28;20488;-81
2022/10/22 09:33:24;;;;;;;6.20;2.83;;;14.50;99.90;;;;;;5058284;28;20130;-81
2022/10/22 09:35:57;;;;;;;8.88;2.78;;;14.60;99.90;;;;;;5090240;28;20496;-80
2022/10/22 09:38:27;;;;;;;15.85;3.15;;;14.80;99.90;;;;;;5091326;28;20047;-82
2022/10/22 09:40:56;;;;;;;7.00;2.88;;;14.80;99.90;;;;;;5100015;28;20036;-82
2022/10/22 09:43:23;;;;;;;9.60;2.90;;;14.80;99.90;;;;;;5106803;28;20085;-82
2022/10/22 09:46:01;;;;;;;6.78;3.03;;;14.90;99.90;;;;;;5090732;28;20044;-82
2022/10/22 09:48:38;;;;;;;9.20;2.95;;;15.00;99.90;;;;;;5127790;28;20408;-82
2022/10/22 09:51:35;;;;;;;9.05;3.33;;;15.10;99.90;;;;;;5127087;28;20167;-81
2022/10/22 09:54:12;;;;;;;8.20;2.70;;;15.20;99.90;;;;;;5110675;28;20047;-83
2022/10/22 09:56:40;;;;;;;9.70;2.92;;;15.30;99.90;;;;;;5095742;28;20548;-82
2022/10/22 09:59:15;;;;;;;9.73;2.67;;;15.30;99.90;;;;;;5094222;28;20491;-83
2022/10/22 10:01:44;;;;;;;10.32;2.50;;;15.40;99.90;;;;;;5094990;28;20520;-82
2022/10/22 10:04:14;;;;;;;11.98;3.13;;;15.40;99.90;;;;;;5093835;28;20074;-82
2022/10/22 10:06:43;;;;;;;13.07;2.92;;;15.40;99.90;;;;;;5110559;28;20488;-82
2022/10/22 10:09:18;;;;;;;16.38;2.83;;;15.40;99.90;;;;;;5110126;28;20126;-82
2022/10/22 10:11:47;;;;;;;9.25;2.58;;;15.40;99.90;;;;;;5092939;28;20044;-81
2022/10/22 10:14:32;;;;;;;8.10;3.08;;;15.40;99.90;;;;;;5108199;28;20043;-84
2022/10/22 10:17:04;;;;;;;13.93;2.95;;;15.40;99.90;;;;;;5109874;28;20135;-84
2022/10/22 10:19:40;;;;;;;6.93;2.40;;;15.50;99.90;;;;;;5090653;28;20072;-85
2022/10/22 10:22:39;;;;;;;5.55;2.38;;;15.50;99.90;;;;;;5089863;28;20075;-83
2022/10/22 10:25:13;;;;;;;9.30;2.40;;;15.50;99.90;;;;;;5089316;28;20059;-81
2022/10/22 10:27:56;;;;;;;7.95;2.28;;;15.50;99.90;;;;;;5092439;28;20037;-81
2022/10/22 10:30:23;;;;;;;7.85;3.00;;;15.60;99.90;;;;;;5127128;28;20253;-82
2022/10/22 10:33:15;;;;;;;5.22;2.10;;;15.60;99.90;;;;;;5109799;28;20131;-82
2022/10/22 10:36:01;;;;;;;12.43;3.25;;;15.60;99.90;;;;;;5121231;28;20032;-81
2022/10/22 10:38:35;;;;;;;8.68;2.50;;;15.50;99.90;;;;;;5109484;28;20115;-82
2022/10/22 10:41:17;;;;;;;3.97;2.33;;;15.50;99.90;;;;;;5109513;28;20058;-82
2022/10/22 10:44:36;;;;;;;16.65;2.83;;;15.50;99.90;;;;;;5110186;28;20557;-82
2022/10/22 10:47:37;;;;;;;10.13;2.45;;;15.50;99.90;;;;;;5071281;28;20532;-81
2022/10/22 10:50:41;;;;;;;7.82;2.88;;;15.50;99.90;;;;;;5109598;28;20535;-80
2022/10/22 10:53:28;;;;;;;7.75;3.15;;;15.40;99.90;;;;;;5109410;28;20036;-81
2022/10/22 10:56:10;;;;;;;6.18;2.25;;;15.40;99.90;;;;;;5109260;28;20051;-81
2022/10/22 10:59:09;;;;;;;10.27;2.50;;;15.50;99.90;;;;;;5109755;28;20507;-81
2022/10/22 11:01:43;;;;;;;7.85;2.25;;;15.40;99.90;;;;;;5109708;28;20404;-81
2022/10/22 11:04:28;;;;;;;6.97;2.72;;;15.50;99.90;;;;;;5126065;28;20040;-82
2022/10/22 11:07:00;;;;;;;8.57;3.00;;;15.40;99.90;;;;;;5126196;28;20051;-81
2022/10/22 11:09:35;;;;;;;5.55;2.47;;;15.50;99.90;;;;;;5109681;28;20044;-81
2022/10/22 11:12:21;;;;;;;7.28;3.53;;;15.40;99.90;;;;;;5109003;28;20535;-81
2022/10/22 11:15:06;;;;;;;8.70;2.60;;;15.40;99.90;;;;;;5109329;28;20059;-81
2022/10/22 11:17:41;;;;;;;8.35;3.03;;;15.40;99.90;;;;;;5109132;28;20043;-81
2022/10/22 11:20:21;;;;;;;7.35;2.80;;;15.50;99.90;;;;;;5108981;28;20035;-81
2022/10/22 11:22:56;;;;;;;7.28;2.38;;;15.50;99.90;;;;;;5126413;28;20505;-82
2022/10/22 11:25:38;;;;;;;8.00;2.67;;;15.50;99.90;;;;;;5098418;28;20384;-81
2022/10/22 11:28:32;;;;;;;10.48;2.90;;;15.50;99.90;;;;;;5108897;28;20797;-81
2022/10/22 11:31:02;;;;;;;7.15;2.70;;;15.50;99.90;;;;;;5099902;28;20105;-81
2022/10/22 11:33:44;;;;;;;10.40;2.70;;;15.50;99.90;;;;;;5109279;28;20050;-81
2022/10/22 11:36:11;;;;;;;8.63;2.42;;;15.40;99.90;;;;;;5114579;28;20040;-82
2022/10/22 11:38:38;;;;;;;9.98;2.67;;;15.40;99.90;;;;;;5109602;28;20122;-82
2022/10/22 11:41:11;;;;;;;7.80;2.65;;;15.40;99.90;;;;;;5092376;28;20040;-82
2022/10/22 11:44:09;;;;;;;8.55;2.72;;;15.40;99.90;;;;;;5107876;28;20081;-82
2022/10/22 11:46:52;;;;;;;5.85;3.20;;;15.40;99.90;;;;;;5095589;28;20036;-82
2022/10/22 11:49:41;;;;;;;9.45;2.70;;;15.40;99.90;;;;;;5106326;28;20586;-82
2022/10/22 11:52:39;;;;;;;9.93;2.60;;;15.30;99.90;;;;;;5103730;28;20028;-81
2022/10/22 11:55:44;;;;;;;8.50;2.95;;;15.30;99.90;;;;;;5104918;28;20037;-81
2022/10/22 11:58:26;;;;;;;9.73;2.70;;;15.30;99.90;;;;;;5077418;28;20037;-81
2022/10/22 12:00:53;;;;;;;9.40;3.10;;;15.30;99.90;;;;;;5108182;28;20396;-81
2022/10/22 12:03:39;;;;;;;7.10;2.90;;;15.20;99.90;;;;;;5112581;28;20392;-81
2022/10/22 12:06:11;;;;;;;7.82;3.13;;;15.30;99.90;;;;;;5117008;28;20036;-81
2022/10/22 12:08:52;;;;;;;6.70;3.33;;;15.20;99.90;;;;;;5117603;28;20040;-81
2022/10/22 12:11:21;;;;;;;7.60;2.80;;;15.20;99.90;;;;;;5092471;28;20040;-81
2022/10/22 12:14:09;;;;;;;6.75;2.90;;;15.30;99.90;;;;;;5109430;28;20098;-81
2022/10/22 12:16:36;;;;;;;8.48;3.15;;;15.30;99.90;;;;;;5105590;28;20411;-81
2022/10/22 12:19:09;;;;;;;8.70;2.92;;;15.30;99.90;;;;;;5093230;28;20047;-81
2022/10/22 12:21:38;;;;;;;9.05;2.95;;;15.40;99.90;;;;;;5119809;28;20032;-81
2022/10/22 12:24:06;;;;;;;8.23;3.03;;;15.40;99.90;;;;;;5108453;28;20495;-81
2022/10/22 12:26:33;;;;;;;8.48;2.90;;;15.40;99.90;;;;;;5129186;28;20032;-81
2022/10/22 12:29:04;;;;;;;5.65;2.90;;;15.50;99.90;;;;;;5087363;28;20519;-82
2022/10/22 12:31:37;;;;;;;9.73;3.10;;;15.60;99.90;;;;;;5100662;28;20036;-82
2022/10/22 12:34:04;;;;;;;7.05;2.50;;;15.50;99.90;;;;;;5128799;28;20040;-81
2022/10/22 12:36:34;;;;;;;10.18;2.78;;;15.60;99.90;;;;;;5107960;28;20565;-81
2022/10/22 12:39:08;;;;;;;6.13;2.60;;;15.60;99.90;;;;;;5108850;28;20040;-82
2022/10/22 12:41:36;;;;;;;8.90;2.65;;;15.60;99.90;;;;;;5096452;28;20399;-82
2022/10/22 12:44:04;;;;;;;7.72;2.65;;;15.60;99.90;;;;;;5109280;28;20436;-82
2022/10/22 12:46:34;;;;;;;6.13;2.50;;;15.50;99.90;;;;;;5111111;28;20066;-82
2022/10/22 12:49:04;;;;;;;6.55;2.90;;;15.50;99.90;;;;;;5094979;28;20081;-82
2022/10/22 12:51:31;;;;;;;6.85;3.08;;;15.50;99.90;;;;;;5123666;28;20051;-82
2022/10/22 12:54:08;;;;;;;9.18;4.13;;;15.50;99.90;;;;;;5095240;28;20047;-82
2022/10/22 12:56:36;;;;;;;10.05;3.13;;;15.40;99.90;;;;;;5128538;28;20170;-82
2022/10/22 12:59:25;;;;;;;6.45;2.78;;;15.40;99.90;;;;;;5128953;28;20084;-86
2022/10/22 13:01:53;;;;;;;8.48;3.30;;;15.40;99.90;;;;;;5108365;28;20427;-82
2022/10/22 13:04:25;;;;;;;8.48;3.10;;;15.30;99.90;;;;;;5095605;28;20088;-82
2022/10/22 13:07:10;;;;;;;6.03;2.90;;;15.30;99.90;;;;;;5111997;28;20040;-81
2022/10/22 13:09:43;;;;;;;8.77;3.10;;;15.30;99.90;;;;;;5128559;28;20104;-81